sensor_id;sensor_type;location;lat;lon;timestamp;P1;durP1;ratioP1;P2;durP2;ratioP2
58152;SDS011;43967;51.634;5.566;2023-02-18T00:01:42;7.70;;;3.28;;
58152;SDS011;43967;51.634;5.566;2023-02-18T00:06:43;7.97;;;3.13;;
58152;SDS011;43967;51.634;5.566;2023-02-18T00:11:44;7.32;;;2.83;;
58152;SDS011;43967;51.634;5.566;2023-02-18T00:16:45;7.10;;;2.80;;
58152;SDS011;43967;51.634;5.566;2023-02-18T00:21:46;7.40;;;3.20;;
58152;SDS011;43967;51.634;5.566;2023-02-18T00:26:49;6.90;;;3.05;;
58152;SDS011;43967;51.634;5.566;2023-02-18T00:31:53;8.15;;;3.40;;
58152;SDS011;43967;51.634;5.566;2023-02-18T00:36:54;8.73;;;3.53;;
58152;SDS011;43967;51.634;5.566;2023-02-18T00:41:55;7.90;;;3.30;;
58152;SDS011;43967;51.634;5.566;2023-02-18T00:46:56;8.25;;;3.45;;
58152;SDS011;43967;51.634;5.566;2023-02-18T00:51:57;8.53;;;3.10;;
58152;SDS011;43967;51.634;5.566;2023-02-18T00:56:58;8.48;;;3.67;;
58152;SDS011;43967;51.634;5.566;2023-02-18T01:01:59;9.00;;;3.47;;
58152;SDS011;43967;51.634;5.566;2023-02-18T01:07:00;8.18;;;3.22;;
58152;SDS011;43967;51.634;5.566;2023-02-18T01:12:01;7.85;;;3.75;;
58152;SDS011;43967;51.634;5.566;2023-02-18T01:17:03;7.67;;;3.83;;
58152;SDS011;43967;51.634;5.566;2023-02-18T01:22:04;9.55;;;3.70;;
58152;SDS011;43967;51.634;5.566;2023-02-18T01:27:05;7.63;;;3.58;;
58152;SDS011;43967;51.634;5.566;2023-02-18T01:32:06;8.73;;;3.80;;
58152;SDS011;43967;51.634;5.566;2023-02-18T01:37:07;8.90;;;3.80;;
58152;SDS011;43967;51.634;5.566;2023-02-18T01:42:22;7.30;;;3.70;;
58152;SDS011;43967;51.634;5.566;2023-02-18T01:47:25;8.73;;;4.20;;
58152;SDS011;43967;51.634;5.566;2023-02-18T01:52:26;9.02;;;4.60;;
58152;SDS011;43967;51.634;5.566;2023-02-18T01:57:30;8.50;;;3.93;;
58152;SDS011;43967;51.634;5.566;2023-02-18T02:02:35;8.82;;;4.22;;
58152;SDS011;43967;51.634;5.566;2023-02-18T02:07:39;8.50;;;4.72;;
58152;SDS011;43967;51.634;5.566;2023-02-18T02:44:53;9.68;;;4.85;;
58152;SDS011;43967;51.634;5.566;2023-02-18T02:55:33;9.13;;;4.20;;
58152;SDS011;43967;51.634;5.566;2023-02-18T03:06:23;8.97;;;4.73;;
58152;SDS011;43967;51.634;5.566;2023-02-18T03:11:28;9.07;;;4.38;;
58152;SDS011;43967;51.634;5.566;2023-02-18T03:16:46;9.35;;;4.15;;
58152;SDS011;43967;51.634;5.566;2023-02-18T03:21:57;10.13;;;4.70;;
58152;SDS011;43967;51.634;5.566;2023-02-18T03:27:01;9.43;;;4.60;;
58152;SDS011;43967;51.634;5.566;2023-02-18T03:32:06;8.63;;;4.00;;
58152;SDS011;43967;51.634;5.566;2023-02-18T03:37:11;9.25;;;4.20;;
58152;SDS011;43967;51.634;5.566;2023-02-18T03:42:17;8.00;;;3.70;;
58152;SDS011;43967;51.634;5.566;2023-02-18T03:47:18;8.20;;;3.80;;
58152;SDS011;43967;51.634;5.566;2023-02-18T03:52:19;8.88;;;4.13;;
58152;SDS011;43967;51.634;5.566;2023-02-18T03:57:24;8.33;;;3.87;;
58152;SDS011;43967;51.634;5.566;2023-02-18T04:02:27;8.50;;;4.00;;
58152;SDS011;43967;51.634;5.566;2023-02-18T04:07:28;7.40;;;3.85;;
58152;SDS011;43967;51.634;5.566;2023-02-18T04:12:29;8.40;;;4.03;;
58152;SDS011;43967;51.634;5.566;2023-02-18T04:17:31;8.40;;;3.92;;
58152;SDS011;43967;51.634;5.566;2023-02-18T04:22:33;7.50;;;3.40;;
58152;SDS011;43967;51.634;5.566;2023-02-18T04:27:34;8.27;;;4.17;;
58152;SDS011;43967;51.634;5.566;2023-02-18T04:32:35;8.25;;;3.67;;
58152;SDS011;43967;51.634;5.566;2023-02-18T04:37:36;8.30;;;3.28;;
58152;SDS011;43967;51.634;5.566;2023-02-18T04:42:37;8.03;;;3.67;;
58152;SDS011;43967;51.634;5.566;2023-02-18T04:47:56;7.63;;;3.63;;
58152;SDS011;43967;51.634;5.566;2023-02-18T04:52:57;7.68;;;3.40;;
58152;SDS011;43967;51.634;5.566;2023-02-18T04:57:58;7.37;;;3.00;;
58152;SDS011;43967;51.634;5.566;2023-02-18T05:02:59;8.57;;;3.72;;
58152;SDS011;43967;51.634;5.566;2023-02-18T05:08:00;7.20;;;3.50;;
58152;SDS011;43967;51.634;5.566;2023-02-18T05:13:01;7.90;;;3.47;;
58152;SDS011;43967;51.634;5.566;2023-02-18T05:18:02;7.40;;;3.60;;
58152;SDS011;43967;51.634;5.566;2023-02-18T05:23:03;7.73;;;3.53;;
58152;SDS011;43967;51.634;5.566;2023-02-18T05:28:04;7.20;;;3.15;;
58152;SDS011;43967;51.634;5.566;2023-02-18T05:33:05;7.13;;;3.15;;
58152;SDS011;43967;51.634;5.566;2023-02-18T05:38:06;8.17;;;3.90;;
58152;SDS011;43967;51.634;5.566;2023-02-18T05:43:07;7.38;;;3.63;;
58152;SDS011;43967;51.634;5.566;2023-02-18T05:48:08;7.30;;;3.20;;
58152;SDS011;43967;51.634;5.566;2023-02-18T05:53:10;6.38;;;2.75;;
58152;SDS011;43967;51.634;5.566;2023-02-18T05:58:11;7.55;;;3.20;;
58152;SDS011;43967;51.634;5.566;2023-02-18T06:03:12;6.80;;;3.10;;
58152;SDS011;43967;51.634;5.566;2023-02-18T06:08:13;7.43;;;2.92;;
58152;SDS011;43967;51.634;5.566;2023-02-18T06:13:14;6.90;;;3.55;;
58152;SDS011;43967;51.634;5.566;2023-02-18T06:18:15;6.67;;;2.90;;
58152;SDS011;43967;51.634;5.566;2023-02-18T06:23:17;6.97;;;2.95;;
58152;SDS011;43967;51.634;5.566;2023-02-18T06:28:18;6.82;;;3.25;;
58152;SDS011;43967;51.634;5.566;2023-02-18T06:33:19;6.90;;;2.80;;
58152;SDS011;43967;51.634;5.566;2023-02-18T06:38:20;7.03;;;2.78;;
58152;SDS011;43967;51.634;5.566;2023-02-18T06:43:21;6.78;;;3.17;;
58152;SDS011;43967;51.634;5.566;2023-02-18T06:48:22;6.13;;;2.43;;
58152;SDS011;43967;51.634;5.566;2023-02-18T06:53:23;6.50;;;2.75;;
58152;SDS011;43967;51.634;5.566;2023-02-18T06:58:25;8.02;;;2.88;;
58152;SDS011;43967;51.634;5.566;2023-02-18T07:03:26;7.50;;;2.80;;
58152;SDS011;43967;51.634;5.566;2023-02-18T07:08:27;7.03;;;2.60;;
58152;SDS011;43967;51.634;5.566;2023-02-18T07:13:28;7.70;;;2.65;;
58152;SDS011;43967;51.634;5.566;2023-02-18T07:18:29;7.03;;;2.70;;
58152;SDS011;43967;51.634;5.566;2023-02-18T07:23:30;6.47;;;2.60;;
58152;SDS011;43967;51.634;5.566;2023-02-18T07:28:31;6.32;;;2.63;;
58152;SDS011;43967;51.634;5.566;2023-02-18T07:33:32;8.23;;;3.37;;
58152;SDS011;43967;51.634;5.566;2023-02-18T07:38:33;6.40;;;2.83;;
58152;SDS011;43967;51.634;5.566;2023-02-18T07:43:34;6.28;;;2.47;;
58152;SDS011;43967;51.634;5.566;2023-02-18T07:48:35;6.53;;;2.80;;
58152;SDS011;43967;51.634;5.566;2023-02-18T07:53:36;7.00;;;2.83;;
58152;SDS011;43967;51.634;5.566;2023-02-18T07:58:38;6.40;;;2.63;;
58152;SDS011;43967;51.634;5.566;2023-02-18T08:03:39;6.40;;;3.10;;
58152;SDS011;43967;51.634;5.566;2023-02-18T08:08:40;6.68;;;2.88;;
58152;SDS011;43967;51.634;5.566;2023-02-18T08:13:41;6.57;;;2.80;;
58152;SDS011;43967;51.634;5.566;2023-02-18T08:18:42;6.53;;;2.93;;
58152;SDS011;43967;51.634;5.566;2023-02-18T08:23:43;6.35;;;2.50;;
58152;SDS011;43967;51.634;5.566;2023-02-18T08:28:45;6.60;;;2.57;;
58152;SDS011;43967;51.634;5.566;2023-02-18T08:33:47;6.43;;;2.10;;
58152;SDS011;43967;51.634;5.566;2023-02-18T08:38:48;6.05;;;2.15;;
58152;SDS011;43967;51.634;5.566;2023-02-18T08:43:50;6.57;;;2.60;;
58152;SDS011;43967;51.634;5.566;2023-02-18T08:48:51;6.47;;;2.50;;
58152;SDS011;43967;51.634;5.566;2023-02-18T08:53:51;6.40;;;2.50;;
58152;SDS011;43967;51.634;5.566;2023-02-18T08:58:52;6.10;;;2.30;;
58152;SDS011;43967;51.634;5.566;2023-02-18T09:03:53;6.10;;;2.30;;
58152;SDS011;43967;51.634;5.566;2023-02-18T09:08:54;6.15;;;2.15;;
58152;SDS011;43967;51.634;5.566;2023-02-18T09:13:58;6.00;;;2.00;;
58152;SDS011;43967;51.634;5.566;2023-02-18T09:18:59;8.73;;;2.30;;
58152;SDS011;43967;51.634;5.566;2023-02-18T09:24:00;5.72;;;1.90;;
58152;SDS011;43967;51.634;5.566;2023-02-18T09:29:01;6.63;;;2.00;;
58152;SDS011;43967;51.634;5.566;2023-02-18T09:34:02;6.85;;;2.47;;
58152;SDS011;43967;51.634;5.566;2023-02-18T09:39:06;6.82;;;2.65;;
58152;SDS011;43967;51.634;5.566;2023-02-18T09:44:12;7.47;;;2.23;;
58152;SDS011;43967;51.634;5.566;2023-02-18T09:49:21;6.93;;;2.38;;
58152;SDS011;43967;51.634;5.566;2023-02-18T09:54:25;6.63;;;2.45;;
58152;SDS011;43967;51.634;5.566;2023-02-18T09:59:26;7.93;;;2.33;;
58152;SDS011;43967;51.634;5.566;2023-02-18T10:04:30;8.68;;;2.38;;
58152;SDS011;43967;51.634;5.566;2023-02-18T10:09:36;8.23;;;2.20;;
58152;SDS011;43967;51.634;5.566;2023-02-18T10:14:38;7.73;;;2.40;;
58152;SDS011;43967;51.634;5.566;2023-02-18T10:19:39;8.10;;;2.40;;
58152;SDS011;43967;51.634;5.566;2023-02-18T10:29:45;7.07;;;2.00;;
58152;SDS011;43967;51.634;5.566;2023-02-18T10:35:33;6.93;;;2.10;;
58152;SDS011;43967;51.634;5.566;2023-02-18T10:40:40;7.25;;;2.10;;
58152;SDS011;43967;51.634;5.566;2023-02-18T10:51:27;8.03;;;2.13;;
58152;SDS011;43967;51.634;5.566;2023-02-18T10:56:40;7.82;;;2.13;;
58152;SDS011;43967;51.634;5.566;2023-02-18T11:01:52;10.32;;;1.73;;
58152;SDS011;43967;51.634;5.566;2023-02-18T11:07:04;6.50;;;1.90;;
58152;SDS011;43967;51.634;5.566;2023-02-18T11:12:32;6.77;;;2.20;;
58152;SDS011;43967;51.634;5.566;2023-02-18T11:17:46;9.50;;;1.77;;
58152;SDS011;43967;51.634;5.566;2023-02-18T11:22:49;5.80;;;1.40;;
58152;SDS011;43967;51.634;5.566;2023-02-18T11:27:52;6.63;;;1.57;;
58152;SDS011;43967;51.634;5.566;2023-02-18T11:32:59;6.00;;;2.00;;
58152;SDS011;43967;51.634;5.566;2023-02-18T11:38:14;6.03;;;1.60;;
58152;SDS011;43967;51.634;5.566;2023-02-18T11:43:22;7.80;;;2.10;;
58152;SDS011;43967;51.634;5.566;2023-02-18T11:48:28;6.70;;;1.73;;
58152;SDS011;43967;51.634;5.566;2023-02-18T11:53:34;6.78;;;1.95;;
58152;SDS011;43967;51.634;5.566;2023-02-18T11:58:39;7.60;;;2.10;;
58152;SDS011;43967;51.634;5.566;2023-02-18T12:03:47;6.40;;;1.60;;
58152;SDS011;43967;51.634;5.566;2023-02-18T12:09:08;6.40;;;2.05;;
58152;SDS011;43967;51.634;5.566;2023-02-18T12:14:22;6.82;;;2.00;;
58152;SDS011;43967;51.634;5.566;2023-02-18T12:25:23;6.70;;;1.80;;
58152;SDS011;43967;51.634;5.566;2023-02-18T12:52:16;6.47;;;1.80;;
58152;SDS011;43967;51.634;5.566;2023-02-18T12:57:18;5.77;;;1.97;;
58152;SDS011;43967;51.634;5.566;2023-02-18T13:13:10;5.80;;;1.57;;
58152;SDS011;43967;51.634;5.566;2023-02-18T13:18:18;6.03;;;1.88;;
58152;SDS011;43967;51.634;5.566;2023-02-18T13:23:23;6.38;;;1.85;;
58152;SDS011;43967;51.634;5.566;2023-02-18T13:28:31;6.53;;;1.77;;
58152;SDS011;43967;51.634;5.566;2023-02-18T13:34:09;6.00;;;1.73;;
58152;SDS011;43967;51.634;5.566;2023-02-18T13:39:25;6.53;;;1.95;;
58152;SDS011;43967;51.634;5.566;2023-02-18T13:49:32;6.17;;;1.40;;
58152;SDS011;43967;51.634;5.566;2023-02-18T13:59:45;5.83;;;1.50;;
58152;SDS011;43967;51.634;5.566;2023-02-18T14:04:57;5.50;;;1.70;;
58152;SDS011;43967;51.634;5.566;2023-02-18T14:25:25;5.07;;;1.50;;
58152;SDS011;43967;51.634;5.566;2023-02-18T14:30:37;5.03;;;1.47;;
58152;SDS011;43967;51.634;5.566;2023-02-18T14:35:47;6.43;;;1.57;;
58152;SDS011;43967;51.634;5.566;2023-02-18T14:46:24;6.10;;;1.60;;
58152;SDS011;43967;51.634;5.566;2023-02-18T14:51:28;6.40;;;1.43;;
58152;SDS011;43967;51.634;5.566;2023-02-18T14:56:31;4.95;;;1.30;;
58152;SDS011;43967;51.634;5.566;2023-02-18T15:01:36;5.07;;;1.45;;
58152;SDS011;43967;51.634;5.566;2023-02-18T15:06:37;5.37;;;1.77;;
58152;SDS011;43967;51.634;5.566;2023-02-18T15:11:49;5.07;;;1.50;;
58152;SDS011;43967;51.634;5.566;2023-02-18T15:16:54;5.20;;;1.58;;
58152;SDS011;43967;51.634;5.566;2023-02-18T15:21:56;5.47;;;1.57;;
58152;SDS011;43967;51.634;5.566;2023-02-18T15:27:02;6.53;;;1.48;;
58152;SDS011;43967;51.634;5.566;2023-02-18T15:32:20;6.15;;;1.67;;
58152;SDS011;43967;51.634;5.566;2023-02-18T15:37:23;6.77;;;1.33;;
58152;SDS011;43967;51.634;5.566;2023-02-18T15:42:28;5.13;;;1.42;;
58152;SDS011;43967;51.634;5.566;2023-02-18T15:47:35;5.80;;;1.50;;
58152;SDS011;43967;51.634;5.566;2023-02-18T15:52:49;5.37;;;1.27;;
58152;SDS011;43967;51.634;5.566;2023-02-18T15:57:53;4.82;;;1.20;;
58152;SDS011;43967;51.634;5.566;2023-02-18T16:02:55;5.55;;;1.30;;
58152;SDS011;43967;51.634;5.566;2023-02-18T16:08:15;5.30;;;1.20;;
58152;SDS011;43967;51.634;5.566;2023-02-18T16:13:23;4.50;;;1.20;;
58152;SDS011;43967;51.634;5.566;2023-02-18T16:18:28;4.95;;;1.38;;
58152;SDS011;43967;51.634;5.566;2023-02-18T16:23:39;5.90;;;1.27;;
58152;SDS011;43967;51.634;5.566;2023-02-18T16:28:44;4.53;;;1.10;;
58152;SDS011;43967;51.634;5.566;2023-02-18T16:33:45;7.10;;;1.60;;
58152;SDS011;43967;51.634;5.566;2023-02-18T16:38:49;6.32;;;1.33;;
58152;SDS011;43967;51.634;5.566;2023-02-18T16:43:50;6.67;;;1.80;;
58152;SDS011;43967;51.634;5.566;2023-02-18T16:48:52;5.70;;;1.60;;
58152;SDS011;43967;51.634;5.566;2023-02-18T16:53:54;5.05;;;1.70;;
58152;SDS011;43967;51.634;5.566;2023-02-18T16:58:56;5.50;;;1.60;;
58152;SDS011;43967;51.634;5.566;2023-02-18T17:03:57;7.20;;;1.70;;
58152;SDS011;43967;51.634;5.566;2023-02-18T17:08:59;6.60;;;1.80;;
58152;SDS011;43967;51.634;5.566;2023-02-18T17:14:00;8.87;;;1.80;;
58152;SDS011;43967;51.634;5.566;2023-02-18T17:19:01;7.72;;;1.90;;
58152;SDS011;43967;51.634;5.566;2023-02-18T17:24:02;5.78;;;1.45;;
58152;SDS011;43967;51.634;5.566;2023-02-18T17:29:03;7.00;;;1.93;;
58152;SDS011;43967;51.634;5.566;2023-02-18T17:34:05;6.85;;;1.70;;
58152;SDS011;43967;51.634;5.566;2023-02-18T17:39:10;7.07;;;1.80;;
58152;SDS011;43967;51.634;5.566;2023-02-18T17:44:16;6.33;;;1.93;;
58152;SDS011;43967;51.634;5.566;2023-02-18T17:49:21;6.97;;;2.20;;
58152;SDS011;43967;51.634;5.566;2023-02-18T17:54:22;7.15;;;2.15;;
58152;SDS011;43967;51.634;5.566;2023-02-18T17:59:23;6.57;;;2.20;;
58152;SDS011;43967;51.634;5.566;2023-02-18T18:04:24;6.60;;;2.05;;
58152;SDS011;43967;51.634;5.566;2023-02-18T18:09:25;8.18;;;2.20;;
58152;SDS011;43967;51.634;5.566;2023-02-18T18:14:26;5.90;;;1.90;;
58152;SDS011;43967;51.634;5.566;2023-02-18T18:19:27;6.72;;;2.83;;
58152;SDS011;43967;51.634;5.566;2023-02-18T18:24:28;7.60;;;2.50;;
58152;SDS011;43967;51.634;5.566;2023-02-18T18:29:29;6.32;;;2.20;;
58152;SDS011;43967;51.634;5.566;2023-02-18T18:34:30;7.07;;;2.67;;
58152;SDS011;43967;51.634;5.566;2023-02-18T18:39:31;7.20;;;2.73;;
58152;SDS011;43967;51.634;5.566;2023-02-18T18:44:32;7.05;;;2.70;;
58152;SDS011;43967;51.634;5.566;2023-02-18T18:49:33;6.83;;;2.60;;
58152;SDS011;43967;51.634;5.566;2023-02-18T18:54:34;6.57;;;2.50;;
58152;SDS011;43967;51.634;5.566;2023-02-18T18:59:35;7.57;;;2.60;;
58152;SDS011;43967;51.634;5.566;2023-02-18T19:04:36;8.33;;;3.10;;
58152;SDS011;43967;51.634;5.566;2023-02-18T19:09:37;7.18;;;2.80;;
58152;SDS011;43967;51.634;5.566;2023-02-18T19:14:38;7.10;;;2.90;;
58152;SDS011;43967;51.634;5.566;2023-02-18T19:19:39;7.63;;;3.27;;
58152;SDS011;43967;51.634;5.566;2023-02-18T19:24:40;8.73;;;3.88;;
58152;SDS011;43967;51.634;5.566;2023-02-18T19:29:41;8.70;;;3.50;;
58152;SDS011;43967;51.634;5.566;2023-02-18T19:34:42;8.55;;;3.50;;
58152;SDS011;43967;51.634;5.566;2023-02-18T19:39:43;9.27;;;4.07;;
58152;SDS011;43967;51.634;5.566;2023-02-18T19:44:44;7.90;;;3.70;;
58152;SDS011;43967;51.634;5.566;2023-02-18T19:49:44;9.27;;;3.88;;
58152;SDS011;43967;51.634;5.566;2023-02-18T19:54:45;9.23;;;4.17;;
58152;SDS011;43967;51.634;5.566;2023-02-18T19:59:47;10.30;;;4.43;;
58152;SDS011;43967;51.634;5.566;2023-02-18T20:04:48;8.35;;;3.80;;
58152;SDS011;43967;51.634;5.566;2023-02-18T20:09:50;9.03;;;4.03;;
58152;SDS011;43967;51.634;5.566;2023-02-18T20:14:51;9.60;;;3.78;;
58152;SDS011;43967;51.634;5.566;2023-02-18T20:19:52;8.82;;;3.88;;
58152;SDS011;43967;51.634;5.566;2023-02-18T20:24:53;10.17;;;4.23;;
58152;SDS011;43967;51.634;5.566;2023-02-18T20:29:54;9.80;;;4.43;;
58152;SDS011;43967;51.634;5.566;2023-02-18T20:34:55;8.65;;;4.50;;
58152;SDS011;43967;51.634;5.566;2023-02-18T20:39:56;10.60;;;4.70;;
58152;SDS011;43967;51.634;5.566;2023-02-18T20:44:57;9.63;;;4.28;;
58152;SDS011;43967;51.634;5.566;2023-02-18T20:49:58;8.97;;;4.60;;
58152;SDS011;43967;51.634;5.566;2023-02-18T20:54:59;10.65;;;4.75;;
58152;SDS011;43967;51.634;5.566;2023-02-18T21:00:00;10.18;;;4.90;;
58152;SDS011;43967;51.634;5.566;2023-02-18T21:05:01;9.93;;;4.70;;
58152;SDS011;43967;51.634;5.566;2023-02-18T21:10:02;8.88;;;4.70;;
58152;SDS011;43967;51.634;5.566;2023-02-18T21:15:03;9.57;;;4.35;;
58152;SDS011;43967;51.634;5.566;2023-02-18T21:20:04;8.83;;;4.30;;
58152;SDS011;43967;51.634;5.566;2023-02-18T21:25:06;9.85;;;4.50;;
58152;SDS011;43967;51.634;5.566;2023-02-18T21:30:07;9.93;;;4.85;;
58152;SDS011;43967;51.634;5.566;2023-02-18T21:35:08;9.97;;;4.87;;
58152;SDS011;43967;51.634;5.566;2023-02-18T21:40:09;10.47;;;5.10;;
58152;SDS011;43967;51.634;5.566;2023-02-18T21:45:11;9.68;;;4.88;;
58152;SDS011;43967;51.634;5.566;2023-02-18T21:50:12;10.80;;;4.80;;
58152;SDS011;43967;51.634;5.566;2023-02-18T21:55:14;9.70;;;4.83;;
58152;SDS011;43967;51.634;5.566;2023-02-18T22:00:15;9.40;;;5.00;;
58152;SDS011;43967;51.634;5.566;2023-02-18T22:05:16;9.77;;;4.82;;
58152;SDS011;43967;51.634;5.566;2023-02-18T22:10:17;9.30;;;4.73;;
58152;SDS011;43967;51.634;5.566;2023-02-18T22:15:18;9.10;;;4.40;;
58152;SDS011;43967;51.634;5.566;2023-02-18T22:20:19;10.17;;;4.90;;
58152;SDS011;43967;51.634;5.566;2023-02-18T22:25:20;9.25;;;4.50;;
58152;SDS011;43967;51.634;5.566;2023-02-18T22:30:21;9.70;;;4.80;;
58152;SDS011;43967;51.634;5.566;2023-02-18T22:35:22;9.60;;;4.20;;
58152;SDS011;43967;51.634;5.566;2023-02-18T22:40:23;8.93;;;4.60;;
58152;SDS011;43967;51.634;5.566;2023-02-18T22:45:24;10.40;;;4.60;;
58152;SDS011;43967;51.634;5.566;2023-02-18T22:50:25;9.30;;;4.22;;
58152;SDS011;43967;51.634;5.566;2023-02-18T22:55:26;8.60;;;4.00;;
58152;SDS011;43967;51.634;5.566;2023-02-18T23:00:27;9.30;;;4.67;;
58152;SDS011;43967;51.634;5.566;2023-02-18T23:05:28;9.50;;;4.65;;
58152;SDS011;43967;51.634;5.566;2023-02-18T23:10:29;9.93;;;4.47;;
58152;SDS011;43967;51.634;5.566;2023-02-18T23:15:30;8.95;;;3.83;;
58152;SDS011;43967;51.634;5.566;2023-02-18T23:20:31;8.60;;;4.13;;
58152;SDS011;43967;51.634;5.566;2023-02-18T23:25:32;8.80;;;4.10;;
58152;SDS011;43967;51.634;5.566;2023-02-18T23:30:33;8.40;;;4.07;;
58152;SDS011;43967;51.634;5.566;2023-02-18T23:35:34;9.73;;;4.57;;
58152;SDS011;43967;51.634;5.566;2023-02-18T23:40:35;9.53;;;4.20;;
58152;SDS011;43967;51.634;5.566;2023-02-18T23:45:36;9.25;;;4.47;;
58152;SDS011;43967;51.634;5.566;2023-02-18T23:50:37;8.93;;;4.17;;
58152;SDS011;43967;51.634;5.566;2023-02-18T23:55:37;9.57;;;4.13;;
